Time;durP1;ratioP1;P1;durP2;ratioP2;P2;SDS_P1;SDS_P2;PMS_P1;PMS_P2;Temp;Humidity;BMP_temperature;BMP_pressure;BME280_temperature;BME280_humidity;BME280_pressure;Samples;Min_cycle;Max_cycle;Signal;HPM_P1;HPM_P2
2021/08/02 00:04:08;;;;;;;11.27;7.40;;;;;;;-140.79;100.00;63287.88;4866809;26;20058;-71
2021/08/02 00:06:46;;;;;;;13.95;7.80;;;;;;;-140.79;100.00;63287.88;4967930;28;20046;-71
2021/08/02 00:09:11;;;;;;;11.32;7.45;;;;;;;-140.79;100.00;63287.88;4967349;28;20026;-71
2021/08/02 00:11:44;;;;;;;13.45;8.27;;;;;;;-140.79;100.00;63287.88;4949753;28;20029;-71
2021/08/02 00:14:10;;;;;;;12.18;7.60;;;;;;;-140.79;100.00;63287.88;4951047;28;20035;-71
2021/08/02 00:16:36;;;;;;;12.57;9.00;;;;;;;-140.79;100.00;63287.88;4949861;28;20251;-71
2021/08/02 00:19:04;;;;;;;13.13;7.90;;;;;;;-140.79;100.00;63287.88;4966794;28;20457;-71
2021/08/02 00:21:29;;;;;;;13.02;7.90;;;;;;;-140.79;100.00;63287.88;4967683;28;20035;-71
2021/08/02 00:23:55;;;;;;;13.07;7.95;;;;;;;-140.79;100.00;63287.88;4966941;28;20066;-71
2021/08/02 00:26:21;;;;;;;14.50;8.30;;;;;;;-140.79;100.00;63287.88;4963887;28;20034;-71
2021/08/02 00:28:57;;;;;;;8.90;7.85;;;;;;;-140.79;100.00;63287.88;4949741;28;20019;-71
2021/08/02 00:31:23;;;;;;;15.30;8.30;;;;;;;-140.79;100.00;63287.88;4966740;28;20026;-71
2021/08/02 00:33:49;;;;;;;13.75;7.68;;;;;;;-140.79;100.00;63287.88;4967357;28;20035;-71
2021/08/02 00:36:21;;;;;;;11.35;7.10;;;;;;;-140.79;100.00;63287.88;4966581;28;20698;-71
2021/08/02 00:39:22;;;;;;;13.85;7.93;;;;;;;-140.79;100.00;63287.88;4962859;28;20045;-70
2021/08/02 00:42:25;;;;;;;11.75;7.22;;;;;;;-140.79;100.00;63287.88;4943557;28;20535;-71
2021/08/02 00:45:05;;;;;;;12.75;7.22;;;;;;;-140.79;100.00;63287.88;4966633;28;20587;-71
2021/08/02 00:47:34;;;;;;;12.63;8.38;;;;;;;-140.79;100.00;63287.88;4968708;28;20034;-70
2021/08/02 00:50:19;;;;;;;13.65;7.25;;;;;;;-140.79;100.00;63287.88;4970546;28;20493;-71
2021/08/02 00:53:01;;;;;;;11.10;7.88;;;;;;;-140.79;100.00;63287.88;4971614;28;20070;-71
2021/08/02 00:55:27;;;;;;;10.60;7.07;;;;;;;-140.79;100.00;63287.88;4972165;28;20025;-71
2021/08/02 00:57:54;;;;;;;11.77;7.00;;;;;;;-140.79;100.00;63287.88;4971234;28;20429;-71
2021/08/02 01:00:19;;;;;;;12.45;7.80;;;;;;;-140.79;100.00;63287.88;4952659;28;20417;-70
2021/08/02 01:02:48;;;;;;;14.82;8.38;;;;;;;-140.79;100.00;63287.88;4970553;28;20054;-71
2021/08/02 01:05:13;;;;;;;14.43;7.50;;;;;;;-140.79;100.00;63287.88;4970594;28;20023;-71
2021/08/02 01:07:47;;;;;;;14.50;7.90;;;;;;;-140.79;100.00;63287.88;4970599;28;20030;-71
2021/08/02 01:10:13;;;;;;;15.10;7.65;;;;;;;-140.79;100.00;63287.88;4971174;28;20031;-71
2021/08/02 01:12:40;;;;;;;11.45;7.38;;;;;;;-140.79;100.00;63287.88;4953547;28;20038;-71
2021/08/02 01:15:09;;;;;;;13.00;7.85;;;;;;;-140.79;100.00;63287.88;4967026;28;20041;-71
2021/08/02 01:17:34;;;;;;;11.68;7.70;;;;;;;-140.79;100.00;63287.88;4970608;28;20035;-71
2021/08/02 01:20:04;;;;;;;11.35;8.05;;;;;;;-140.79;100.00;63287.88;4969408;28;20037;-71
2021/08/02 01:22:30;;;;;;;17.20;9.00;;;;;;;-140.79;100.00;63287.88;4969351;28;20035;-72
2021/08/02 01:24:55;;;;;;;14.65;8.20;;;;;;;-140.79;100.00;63287.88;4969991;28;20041;-71
2021/08/02 01:27:39;;;;;;;13.45;8.05;;;;;;;-140.79;100.00;63287.88;4969917;28;20023;-71
2021/08/02 01:30:15;;;;;;;13.70;8.30;;;;;;;-140.79;100.00;63287.88;4969161;28;20041;-71
2021/08/02 01:32:40;;;;;;;11.13;7.35;;;;;;;-140.79;100.00;63287.88;4970459;28;20018;-71
2021/08/02 01:35:06;;;;;;;12.50;8.07;;;;;;;-140.79;100.00;63287.88;4968897;28;20081;-71
2021/08/02 01:37:31;;;;;;;11.55;7.60;;;;;;;-140.79;100.00;63287.88;4969079;28;20023;-72
2021/08/02 01:39:57;;;;;;;13.45;8.10;;;;;;;-140.79;100.00;63287.88;4968342;28;20023;-71
2021/08/02 01:42:22;;;;;;;12.65;8.23;;;;;;;-140.79;100.00;63287.88;4970343;28;20026;-70
2021/08/02 01:44:48;;;;;;;12.07;8.35;;;;;;;-140.79;100.00;63287.88;4969892;28;20035;-70
2021/08/02 01:47:40;;;;;;;13.20;8.52;;;;;;;-140.79;100.00;63287.88;4953141;28;20096;-71
2021/08/02 01:50:06;;;;;;;11.20;8.00;;;;;;;-140.79;100.00;63287.88;4953158;28;20023;-70
2021/08/02 01:52:38;;;;;;;15.80;8.45;;;;;;;-140.79;100.00;63287.88;4970486;28;20413;-71
2021/08/02 01:55:24;;;;;;;12.40;7.90;;;;;;;-140.79;100.00;63287.88;4969464;28;20043;-71
2021/08/02 01:58:02;;;;;;;12.10;7.82;;;;;;;-140.79;100.00;63287.88;4970124;28;20066;-71
2021/08/02 02:00:28;;;;;;;12.10;7.80;;;;;;;-140.79;100.00;63287.88;4952209;28;20026;-71
2021/08/02 02:03:23;;;;;;;15.45;8.25;;;;;;;-140.79;100.00;63287.88;4972521;28;20125;-71
2021/08/02 02:05:59;;;;;;;12.93;8.13;;;;;;;-140.79;100.00;63287.88;4962801;28;20046;-71
2021/08/02 02:08:33;;;;;;;14.70;8.57;;;;;;;-140.79;100.00;63287.88;4957275;28;20029;-71
2021/08/02 02:11:00;;;;;;;12.57;7.88;;;;;;;-140.79;100.00;63287.88;4971775;28;20037;-71
2021/08/02 02:13:34;;;;;;;14.45;8.10;;;;;;;-140.79;100.00;63287.88;4972268;28;20353;-71
2021/08/02 02:16:00;;;;;;;13.38;7.07;;;;;;;-140.79;100.00;63287.88;4971982;28;20037;-71
2021/08/02 02:18:26;;;;;;;13.25;8.30;;;;;;;-140.79;100.00;63287.88;4980452;28;20026;-71
2021/08/02 02:20:51;;;;;;;13.60;8.02;;;;;;;-140.79;100.00;63287.88;4952608;28;20030;-70
2021/08/02 02:23:17;;;;;;;14.65;7.70;;;;;;;-140.79;100.00;63287.88;4951508;28;20030;-71
2021/08/02 02:25:42;;;;;;;13.20;7.15;;;;;;;-140.79;100.00;63287.88;4978427;28;20109;-71
2021/08/02 02:28:08;;;;;;;14.18;7.40;;;;;;;-140.79;100.00;63287.88;4955858;28;20022;-71
2021/08/02 02:30:33;;;;;;;13.60;6.95;;;;;;;-140.79;100.00;63287.88;4961912;28;20126;-71
2021/08/02 02:32:59;;;;;;;16.00;7.45;;;;;;;-140.79;100.00;63287.88;4952038;28;20039;-71
2021/08/02 02:35:25;;;;;;;14.18;8.02;;;;;;;-140.79;100.00;63287.88;4968835;28;20061;-71
2021/08/02 02:37:52;;;;;;;17.20;7.80;;;;;;;-140.79;100.00;63287.88;4960146;28;20049;-71
2021/08/02 02:40:17;;;;;;;13.57;7.38;;;;;;;-140.79;100.00;63287.88;4971388;28;20428;-71
2021/08/02 02:42:42;;;;;;;18.27;8.50;;;;;;;-140.79;100.00;63287.88;4970908;28;20030;-71
2021/08/02 02:45:08;;;;;;;13.25;7.28;;;;;;;-140.79;100.00;63287.88;4975832;28;20034;-71
2021/08/02 02:47:33;;;;;;;14.48;6.90;;;;;;;-140.79;100.00;63287.88;4952163;28;20704;-71
2021/08/02 02:49:59;;;;;;;15.75;7.78;;;;;;;-140.79;100.00;63287.88;4950699;28;20474;-71
2021/08/02 02:52:24;;;;;;;10.07;6.97;;;;;;;-140.79;100.00;63287.88;4955976;28;20460;-71
2021/08/02 02:54:50;;;;;;;14.45;7.03;;;;;;;-140.79;100.00;63287.88;4970917;28;20030;-71
2021/08/02 02:57:16;;;;;;;16.48;7.00;;;;;;;-140.79;100.00;63287.88;4969883;28;20026;-71
2021/08/02 02:59:41;;;;;;;15.32;6.95;;;;;;;-140.79;100.00;63287.88;4988403;28;20038;-71
2021/08/02 03:02:07;;;;;;;13.20;6.50;;;;;;;-140.79;100.00;63287.88;4958995;28;20035;-71
2021/08/02 03:04:35;;;;;;;14.90;6.45;;;;;;;-140.79;100.00;63287.88;4968296;28;20418;-72
2021/08/02 03:07:00;;;;;;;13.38;6.68;;;;;;;-140.79;100.00;63287.88;4948346;28;20481;-71
2021/08/02 03:09:31;;;;;;;16.55;7.13;;;;;;;-140.79;100.00;63287.88;4964104;28;20038;-71
2021/08/02 03:11:57;;;;;;;14.20;6.30;;;;;;;-140.79;100.00;63287.88;4959683;28;20034;-71
2021/08/02 03:14:22;;;;;;;14.60;7.10;;;;;;;-140.79;100.00;63287.88;4986842;28;20033;-71
2021/08/02 03:16:47;;;;;;;16.13;7.13;;;;;;;-140.79;100.00;63287.88;4987186;28;20018;-71
2021/08/02 03:19:13;;;;;;;13.60;6.88;;;;;;;-140.79;100.00;63287.88;4987173;28;20027;-71
2021/08/02 03:21:38;;;;;;;18.75;7.28;;;;;;;-140.79;100.00;63287.88;4988196;28;20030;-72
2021/08/02 03:24:22;;;;;;;13.15;7.03;;;;;;;-140.79;100.00;63287.88;4988388;28;20657;-71
2021/08/02 03:26:56;;;;;;;16.40;7.18;;;;;;;-140.79;100.00;63287.88;4967337;28;20515;-71
2021/08/02 03:29:29;;;;;;;14.55;7.95;;;;;;;-140.79;100.00;63287.88;4951300;28;20023;-70
2021/08/02 03:31:57;;;;;;;15.88;8.25;;;;;;;-140.79;100.00;63287.88;4950867;28;20031;-71
2021/08/02 03:34:26;;;;;;;13.13;7.38;;;;;;;-140.79;100.00;63287.88;4935060;28;20027;-71
2021/08/02 03:36:51;;;;;;;17.30;7.15;;;;;;;-140.79;100.00;63287.88;4948146;28;20093;-71
2021/08/02 03:39:18;;;;;;;13.85;7.60;;;;;;;-140.79;100.00;63287.88;4986122;28;20030;-71
2021/08/02 03:41:44;;;;;;;15.75;7.88;;;;;;;-140.79;100.00;63287.88;4985721;28;20437;-71
2021/08/02 03:44:12;;;;;;;14.85;7.50;;;;;;;-140.79;100.00;63287.88;4969973;28;20054;-71
2021/08/02 03:46:39;;;;;;;16.27;7.50;;;;;;;-140.79;100.00;63287.88;4986073;28;20444;-71
2021/08/02 03:49:04;;;;;;;15.45;7.55;;;;;;;-140.79;100.00;63287.88;4987148;28;20038;-71
2021/08/02 03:51:36;;;;;;;15.98;6.97;;;;;;;-140.79;100.00;63287.88;4978877;28;20031;-71
2021/08/02 03:54:02;;;;;;;14.30;6.95;;;;;;;-140.79;100.00;63287.88;4967971;28;20037;-71
2021/08/02 03:56:27;;;;;;;13.50;7.43;;;;;;;-140.79;100.00;63287.88;4966824;28;20026;-71
2021/08/02 03:58:53;;;;;;;16.30;8.00;;;;;;;-140.79;100.00;63287.88;4968117;28;20045;-71
2021/08/02 04:01:18;;;;;;;16.63;9.02;;;;;;;-140.79;100.00;63287.88;4966270;28;20034;-71
2021/08/02 04:03:43;;;;;;;16.55;8.07;;;;;;;-140.79;100.00;63287.88;4967952;28;20046;-71
2021/08/02 04:06:10;;;;;;;16.17;8.13;;;;;;;-140.79;100.00;63287.88;4966906;28;20018;-71
2021/08/02 04:08:35;;;;;;;16.08;7.75;;;;;;;-140.79;100.00;63287.88;4967835;28;20030;-71
2021/08/02 04:11:01;;;;;;;16.25;7.82;;;;;;;-140.79;100.00;63287.88;4968148;28;20489;-70
2021/08/02 04:13:26;;;;;;;15.80;7.72;;;;;;;-140.79;100.00;63287.88;4967035;28;20035;-71
2021/08/02 04:15:52;;;;;;;16.23;8.00;;;;;;;-140.79;100.00;63287.88;4950404;28;20026;-71
2021/08/02 04:18:17;;;;;;;14.68;7.95;;;;;;;-140.79;100.00;63287.88;4967181;28;20077;-71
2021/08/02 04:20:43;;;;;;;17.00;8.60;;;;;;;-140.79;100.00;63287.88;4982068;28;20092;-71
2021/08/02 04:23:09;;;;;;;13.77;7.75;;;;;;;-140.79;100.00;63287.88;4986181;28;20038;-71
2021/08/02 04:25:35;;;;;;;15.43;8.13;;;;;;;-140.79;100.00;63287.88;4976187;28;20500;-71
2021/08/02 04:28:00;;;;;;;12.50;8.20;;;;;;;-140.79;100.00;63287.88;4967369;28;20154;-71
2021/08/02 04:30:25;;;;;;;14.25;8.02;;;;;;;-140.79;100.00;63287.88;4966583;28;20057;-70
2021/08/02 04:32:51;;;;;;;16.65;8.50;;;;;;;-140.79;100.00;63287.88;4994608;28;20033;-71
2021/08/02 04:35:16;;;;;;;16.02;7.72;;;;;;;-140.79;100.00;63287.88;5005447;28;20037;-76
2021/08/02 04:37:42;;;;;;;14.20;7.72;;;;;;;-140.79;100.00;63287.88;5001866;28;20034;-75
2021/08/02 04:40:08;;;;;;;16.65;7.85;;;;;;;-140.79;100.00;63287.88;4970782;28;20427;-71
2021/08/02 04:42:36;;;;;;;16.35;7.63;;;;;;;-140.79;100.00;63287.88;4973453;28;20098;-72
2021/08/02 04:45:03;;;;;;;15.52;7.65;;;;;;;-140.79;100.00;63287.88;4974193;28;20117;-74
2021/08/02 04:47:28;;;;;;;13.48;7.78;;;;;;;-140.79;100.00;63287.88;4981609;28;20026;-73
2021/08/02 04:49:54;;;;;;;14.75;7.05;;;;;;;-140.79;100.00;63287.88;4975229;28;20038;-72
2021/08/02 04:52:19;;;;;;;18.35;7.25;;;;;;;-140.79;100.00;63287.88;4973391;28;20022;-73
2021/08/02 04:54:45;;;;;;;18.05;7.38;;;;;;;-140.79;100.00;63287.88;4986259;28;20034;-72
2021/08/02 04:57:11;;;;;;;12.73;7.30;;;;;;;-140.79;100.00;63287.88;4986485;28;20027;-73
2021/08/02 04:59:36;;;;;;;14.77;8.13;;;;;;;-140.79;100.00;63287.88;4986402;28;20026;-71
2021/08/02 05:02:02;;;;;;;14.98;7.82;;;;;;;-140.79;100.00;63287.88;4986560;28;20540;-71
2021/08/02 05:04:27;;;;;;;16.60;7.53;;;;;;;-140.79;100.00;63287.88;4986206;28;20133;-71
2021/08/02 05:06:53;;;;;;;18.20;7.88;;;;;;;-140.79;100.00;63287.88;4986416;28;20026;-75
2021/08/02 05:09:18;;;;;;;16.40;7.57;;;;;;;-140.79;100.00;63287.88;4986030;28;20030;-72
2021/08/02 05:11:44;;;;;;;13.85;7.63;;;;;;;-140.79;100.00;63287.88;4986830;28;20425;-74
2021/08/02 05:14:09;;;;;;;18.58;7.50;;;;;;;-140.79;100.00;63287.88;4986574;28;20512;-77
2021/08/02 05:16:34;;;;;;;14.88;7.35;;;;;;;-140.79;100.00;63287.88;4986490;28;20030;-72
2021/08/02 05:19:00;;;;;;;16.05;7.88;;;;;;;-140.79;100.00;63287.88;4969340;28;20030;-72
2021/08/02 05:21:25;;;;;;;16.08;7.78;;;;;;;-140.79;100.00;63287.88;4968919;28;20416;-76
2021/08/02 05:23:51;;;;;;;14.73;8.15;;;;;;;-140.79;100.00;63287.88;4981670;28;20426;-74
2021/08/02 05:26:16;;;;;;;17.65;8.55;;;;;;;-140.79;100.00;63287.88;4981735;28;20034;-74
2021/08/02 05:28:42;;;;;;;16.75;8.20;;;;;;;-140.79;100.00;63287.88;4975817;28;20026;-73
2021/08/02 05:31:08;;;;;;;17.10;8.40;;;;;;;-140.79;100.00;63287.88;4972730;28;20428;-71
2021/08/02 05:33:33;;;;;;;15.90;8.00;;;;;;;-140.79;100.00;63287.88;4983535;28;20034;-75
2021/08/02 05:36:03;;;;;;;21.33;7.72;;;;;;;-140.79;100.00;63287.88;4976086;28;20035;-72
2021/08/02 05:38:28;;;;;;;;;;;;;;;-140.79;100.00;63287.88;4987871;28;20424;-72
2021/08/02 05:40:54;;;;;;;22.48;8.23;;;;;;;-140.79;100.00;63287.88;4988806;28;19913;-74
2021/08/02 05:43:19;;;;;;;16.13;7.75;;;;;;;-140.79;100.00;63287.88;4989980;28;20099;-71
2021/08/02 05:45:44;;;;;;;19.83;8.65;;;;;;;-140.79;100.00;63287.88;4989859;28;20041;-72
2021/08/02 05:48:10;;;;;;;16.92;7.55;;;;;;;-140.79;100.00;63287.88;4977255;28;20022;-72
2021/08/02 05:50:35;;;;;;;13.40;8.00;;;;;;;-140.79;100.00;63287.88;4971043;28;20030;-72
2021/08/02 05:53:01;;;;;;;15.25;8.85;;;;;;;-140.79;100.00;63287.88;4987852;28;20045;-72
2021/08/02 05:55:26;;;;;;;18.10;8.52;;;;;;;-140.79;100.00;63287.88;4985238;28;20045;-72
2021/08/02 05:57:52;;;;;;;16.45;7.57;;;;;;;-140.79;100.00;63287.88;4979781;28;20041;-71
2021/08/02 06:00:17;;;;;;;17.70;8.80;;;;;;;-140.79;100.00;63287.88;4989530;28;20042;-72
2021/08/02 06:02:43;;;;;;;15.40;7.90;;;;;;;-140.79;100.00;63287.88;4977481;28;20049;-72
2021/08/02 06:05:08;;;;;;;15.88;7.75;;;;;;;-140.79;100.00;63287.88;4980895;28;20113;-70
2021/08/02 06:07:36;;;;;;;17.00;8.05;;;;;;;-140.79;100.00;63287.88;4975122;28;20085;-71
2021/08/02 06:10:02;;;;;;;17.70;7.85;;;;;;;-140.79;100.00;63287.88;4981482;28;20100;-71
2021/08/02 06:12:28;;;;;;;22.73;7.85;;;;;;;-140.79;100.00;63287.88;4989585;28;20022;-71
2021/08/02 06:14:53;;;;;;;16.05;8.48;;;;;;;-140.79;100.00;63287.88;4986215;28;20038;-75
2021/08/02 06:17:19;;;;;;;17.05;7.72;;;;;;;-140.79;100.00;63287.88;4988927;28;20026;-73
2021/08/02 06:19:44;;;;;;;17.38;7.60;;;;;;;-140.79;100.00;63287.88;4989794;28;20034;-73
2021/08/02 06:22:11;;;;;;;16.73;7.20;;;;;;;-140.79;100.00;63287.88;4978517;28;20113;-73
2021/08/02 06:24:36;;;;;;;16.00;7.90;;;;;;;-140.79;100.00;63287.88;4986577;28;20029;-76
2021/08/02 06:27:02;;;;;;;13.70;7.10;;;;;;;-140.79;100.00;63287.88;4989853;28;20061;-76
2021/08/02 06:29:27;;;;;;;15.63;7.57;;;;;;;-140.79;100.00;63287.88;4989301;28;20022;-76
2021/08/02 06:31:53;;;;;;;13.50;7.28;;;;;;;-140.79;100.00;63287.88;4976223;28;20034;-72
2021/08/02 06:34:18;;;;;;;15.00;7.13;;;;;;;-140.79;100.00;63287.88;4988564;28;20065;-83
2021/08/02 06:36:44;;;;;;;15.65;7.28;;;;;;;-140.79;100.00;63287.88;4987969;28;20026;-80
2021/08/02 06:39:09;;;;;;;14.50;7.47;;;;;;;-140.79;100.00;63287.88;4985238;28;20027;-81
2021/08/02 06:41:35;;;;;;;13.73;6.90;;;;;;;-140.79;100.00;63287.88;4984463;28;20080;-81
2021/08/02 06:44:00;;;;;;;13.27;7.30;;;;;;;-140.79;100.00;63287.88;4985812;28;20093;-76
2021/08/02 06:46:26;;;;;;;16.02;7.05;;;;;;;-140.79;100.00;63287.88;4981074;28;20026;-76
2021/08/02 06:48:51;;;;;;;14.48;7.13;;;;;;;-140.79;100.00;63287.88;4987987;28;20015;-76
2021/08/02 06:51:19;;;;;;;17.55;7.50;;;;;;;-140.79;100.00;63287.88;4985790;28;20502;-78
2021/08/02 06:53:44;;;;;;;16.98;8.00;;;;;;;-140.79;100.00;63287.88;4974134;28;20037;-78
2021/08/02 06:56:09;;;;;;;12.98;7.15;;;;;;;-140.79;100.00;63287.88;4977978;28;20556;-76
2021/08/02 06:58:35;;;;;;;12.27;6.80;;;;;;;-140.79;100.00;63287.88;4981944;28;20500;-80
2021/08/02 07:01:00;;;;;;;13.18;7.15;;;;;;;-140.79;100.00;63287.88;4967214;28;20030;-76
2021/08/02 07:03:26;;;;;;;15.68;7.55;;;;;;;-140.79;100.00;63287.88;4973802;28;20039;-77
2021/08/02 07:05:51;;;;;;;16.70;6.95;;;;;;;-140.79;100.00;63287.88;4983178;28;20034;-75
2021/08/02 07:08:18;;;;;;;14.48;6.75;;;;;;;-140.79;100.00;63287.88;4975326;28;20595;-82
2021/08/02 07:10:44;;;;;;;12.25;7.28;;;;;;;-140.79;100.00;63287.88;4967449;28;20023;-72
2021/08/02 07:13:09;;;;;;;13.38;8.02;;;;;;;-140.79;100.00;63287.88;4969174;28;20738;-81
2021/08/02 07:15:35;;;;;;;9.75;6.80;;;;;;;-140.79;100.00;63287.88;4976993;28;20681;-74
2021/08/02 07:18:00;;;;;;;16.00;7.70;;;;;;;-140.79;100.00;63287.88;4973249;28;20823;-74
2021/08/02 07:20:26;;;;;;;11.57;6.88;;;;;;;-140.79;100.00;63287.88;4979160;28;20022;-75
2021/08/02 07:22:51;;;;;;;14.60;6.93;;;;;;;-140.79;100.00;63287.88;4982735;28;20026;-75
2021/08/02 07:25:17;;;;;;;12.10;7.25;;;;;;;-140.79;100.00;63287.88;4971722;28;20049;-74
2021/08/02 07:27:43;;;;;;;12.60;6.32;;;;;;;-140.79;100.00;63287.88;4971426;28;20018;-75
2021/08/02 07:30:09;;;;;;;11.02;6.70;;;;;;;-140.79;100.00;63287.88;4972485;28;20086;-74
2021/08/02 07:32:34;;;;;;;10.05;6.75;;;;;;;-140.79;100.00;63287.88;4985679;28;20024;-73
2021/08/02 07:35:00;;;;;;;10.90;6.55;;;;;;;-140.79;100.00;63287.88;4969988;28;20023;-74
2021/08/02 07:37:25;;;;;;;8.05;5.97;;;;;;;-140.79;100.00;63287.88;4972074;28;20015;-75
2021/08/02 07:39:51;;;;;;;10.68;6.35;;;;;;;-140.79;100.00;63287.88;4965998;28;20081;-74
2021/08/02 07:42:16;;;;;;;10.27;6.57;;;;;;;-140.79;100.00;63287.88;4980708;28;20520;-74
2021/08/02 07:44:42;;;;;;;11.52;6.30;;;;;;;-140.79;100.00;63287.88;4974008;28;20028;-74
2021/08/02 07:47:07;;;;;;;9.65;6.10;;;;;;;-140.79;100.00;63287.88;4973326;28;20436;-74
2021/08/02 07:49:33;;;;;;;11.63;6.03;;;;;;;-140.79;100.00;63287.88;4968479;28;20038;-74
2021/08/02 07:51:58;;;;;;;9.60;6.43;;;;;;;-140.79;100.00;63287.88;4968729;28;20023;-74
2021/08/02 07:54:24;;;;;;;10.93;6.32;;;;;;;-140.79;100.00;63287.88;4976843;28;20056;-74
2021/08/02 07:56:49;;;;;;;10.90;6.07;;;;;;;-140.79;100.00;63287.88;4968574;28;20476;-74
2021/08/02 07:59:14;;;;;;;8.25;6.00;;;;;;;-140.79;100.00;63287.88;4969492;28;20026;-74
2021/08/02 08:01:40;;;;;;;10.52;5.97;;;;;;;-140.79;100.00;63287.88;4975494;28;20026;-74
2021/08/02 08:04:05;;;;;;;9.98;5.72;;;;;;;-140.79;100.00;63287.88;4967781;28;20117;-74
2021/08/02 08:06:31;;;;;;;11.52;6.47;;;;;;;-140.79;100.00;63287.88;4967647;28;20026;-74
2021/08/02 08:08:56;;;;;;;9.98;5.78;;;;;;;-140.79;100.00;63287.88;4972735;28;20026;-74
2021/08/02 08:11:22;;;;;;;10.93;6.18;;;;;;;-140.79;100.00;63287.88;4980358;28;20096;-71
2021/08/02 08:13:47;;;;;;;10.63;6.30;;;;;;;-140.79;100.00;63287.88;4982235;28;20026;-74
2021/08/02 08:16:13;;;;;;;9.40;6.10;;;;;;;-140.79;100.00;63287.88;4969036;28;20151;-74
2021/08/02 08:18:38;;;;;;;12.10;5.97;;;;;;;-140.79;100.00;63287.88;4977649;28;20128;-75
2021/08/02 08:21:03;;;;;;;11.80;6.00;;;;;;;-140.79;100.00;63287.88;4976372;28;20030;-74
2021/08/02 08:23:31;;;;;;;9.13;6.20;;;;;;;-140.79;100.00;63287.88;4968355;28;20494;-75
2021/08/02 08:26:00;;;;;;;7.95;5.68;;;;;;;-140.79;100.00;63287.88;4982050;28;20026;-74
2021/08/02 08:28:25;;;;;;;8.75;5.88;;;;;;;-140.79;100.00;63287.88;4974561;28;20438;-75
2021/08/02 08:30:51;;;;;;;9.07;5.95;;;;;;;-140.79;100.00;63287.88;4986730;28;20029;-74
2021/08/02 08:33:16;;;;;;;11.48;5.45;;;;;;;-140.79;100.00;63287.88;4966141;28;20529;-74
2021/08/02 08:35:42;;;;;;;7.72;5.88;;;;;;;-140.79;100.00;63287.88;4985375;28;20081;-74
2021/08/02 08:38:08;;;;;;;9.80;6.00;;;;;;;-140.79;100.00;63287.88;4968683;28;20030;-74
2021/08/02 08:40:36;;;;;;;8.85;5.63;;;;;;;-140.79;100.00;63287.88;4985036;28;20727;-74
2021/08/02 08:43:02;;;;;;;8.55;5.60;;;;;;;-140.79;100.00;63287.88;4985866;28;20046;-74
2021/08/02 08:45:27;;;;;;;9.57;6.18;;;;;;;-140.79;100.00;63287.88;4978960;28;20052;-75
2021/08/02 08:47:54;;;;;;;8.48;5.63;;;;;;;-140.79;100.00;63287.88;4984351;28;20027;-74
2021/08/02 08:50:20;;;;;;;7.90;6.18;;;;;;;-140.79;100.00;63287.88;4966252;28;20118;-74
2021/08/02 08:52:45;;;;;;;8.52;5.57;;;;;;;-140.79;100.00;63287.88;4980088;28;20034;-75
2021/08/02 08:55:12;;;;;;;9.30;5.18;;;;;;;-140.79;100.00;63287.88;4970177;28;20097;-74
2021/08/02 08:57:38;;;;;;;8.05;5.57;;;;;;;-140.79;100.00;63287.88;4987342;28;20117;-74
2021/08/02 09:00:19;;;;;;;8.50;4.90;;;;;;;-140.79;100.00;63287.88;4984055;28;20022;-73
2021/08/02 09:02:45;;;;;;;7.40;4.72;;;;;;;-140.79;100.00;63287.88;4968258;28;20132;-74
2021/08/02 09:05:10;;;;;;;9.27;5.15;;;;;;;-140.79;100.00;63287.88;4981265;28;20772;-75
2021/08/02 09:07:38;;;;;;;9.68;5.70;;;;;;;-140.79;100.00;63287.88;4986471;28;20030;-74
2021/08/02 09:10:05;;;;;;;8.23;4.80;;;;;;;-140.79;100.00;63287.88;4988895;28;20030;-74
2021/08/02 09:12:32;;;;;;;7.47;4.82;;;;;;;-140.79;100.00;63287.88;4977647;28;20108;-73
2021/08/02 09:14:59;;;;;;;9.70;5.03;;;;;;;-140.79;100.00;63287.88;4971678;28;20502;-74
2021/08/02 09:17:37;;;;;;;8.40;4.70;;;;;;;-140.79;100.00;63287.88;4988978;28;20109;-75
2021/08/02 09:20:20;;;;;;;7.63;5.28;;;;;;;-140.79;100.00;63287.88;4990544;28;20037;-75
2021/08/02 09:22:45;;;;;;;6.28;4.40;;;;;;;-140.79;100.00;63287.88;4989728;28;20500;-75
2021/08/02 09:25:21;;;;;;;8.48;4.95;;;;;;;-140.79;100.00;63287.88;4968527;28;20089;-75
2021/08/02 09:27:48;;;;;;;7.47;4.75;;;;;;;-140.79;100.00;63287.88;4952648;28;20023;-75
2021/08/02 09:30:19;;;;;;;6.78;4.65;;;;;;;-140.79;100.00;63287.88;4983104;28;20039;-75
2021/08/02 09:33:02;;;;;;;8.75;4.47;;;;;;;-140.79;100.00;63287.88;4988420;28;20032;-75
2021/08/02 09:35:28;;;;;;;7.63;4.75;;;;;;;-140.79;100.00;63287.88;4990010;28;20042;-75
2021/08/02 09:37:54;;;;;;;7.47;4.38;;;;;;;-140.79;100.00;63287.88;4988806;28;20025;-75
2021/08/02 09:40:20;;;;;;;8.35;4.35;;;;;;;-140.79;100.00;63287.88;4985634;28;20061;-76
2021/08/02 09:42:55;;;;;;;6.18;4.40;;;;;;;-140.79;100.00;63287.88;4981694;28;20030;-75
2021/08/02 09:45:21;;;;;;;6.50;4.10;;;;;;;-140.79;100.00;63287.88;4977803;28;20117;-75
2021/08/02 09:47:50;;;;;;;7.15;4.53;;;;;;;-140.79;100.00;63287.88;4986679;28;20023;-76
2021/08/02 09:50:31;;;;;;;7.55;4.10;;;;;;;-140.79;100.00;63287.88;4989721;28;20045;-77
2021/08/02 09:52:59;;;;;;;7.13;4.05;;;;;;;-140.79;100.00;63287.88;4984290;28;20128;-81
2021/08/02 09:55:25;;;;;;;6.32;3.67;;;;;;;-140.79;100.00;63287.88;4969274;28;20019;-72
2021/08/02 09:57:52;;;;;;;8.20;3.97;;;;;;;-140.79;100.00;63287.88;4987747;28;20022;-76
2021/08/02 10:00:18;;;;;;;8.63;4.10;;;;;;;-140.79;100.00;63287.88;4989743;28;20033;-74
2021/08/02 10:02:47;;;;;;;7.35;4.18;;;;;;;-140.79;100.00;63287.88;4989970;28;20134;-75
2021/08/02 10:05:16;;;;;;;6.53;4.10;;;;;;;-140.79;100.00;63287.88;4989708;28;20507;-76
2021/08/02 10:07:43;;;;;;;7.38;3.97;;;;;;;-140.79;100.00;63287.88;4989576;28;20348;-75
2021/08/02 10:10:09;;;;;;;7.35;3.80;;;;;;;-140.79;100.00;63287.88;4975939;28;20030;-77
2021/08/02 10:12:43;;;;;;;7.38;3.70;;;;;;;-140.79;100.00;63287.88;4983132;28;20030;-74
2021/08/02 10:15:12;;;;;;;7.75;3.60;;;;;;;-140.79;100.00;63287.88;4967987;28;20038;-76
2021/08/02 10:17:37;;;;;;;6.63;3.88;;;;;;;-140.79;100.00;63287.88;4960367;28;20030;-76
2021/08/02 10:20:04;;;;;;;7.35;3.78;;;;;;;-140.79;100.00;63287.88;4988789;28;20040;-76
2021/08/02 10:22:30;;;;;;;6.50;3.63;;;;;;;-140.79;100.00;63287.88;4972858;28;20038;-84
2021/08/02 10:24:56;;;;;;;8.07;4.07;;;;;;;-140.79;100.00;63287.88;4972451;28;20030;-84
2021/08/02 10:27:29;;;;;;;5.90;3.88;;;;;;;-140.79;100.00;63287.88;4972107;28;20019;-86
2021/08/02 10:29:54;;;;;;;7.82;3.50;;;;;;;-140.79;100.00;63287.88;4970991;28;20130;-84
2021/08/02 10:32:21;;;;;;;5.88;3.60;;;;;;;-140.79;100.00;63287.88;4976681;28;20023;-87
2021/08/02 10:34:51;;;;;;;7.32;3.72;;;;;;;-140.79;100.00;63287.88;4974744;28;20046;-77
2021/08/02 10:37:27;;;;;;;5.63;3.40;;;;;;;-140.79;100.00;63287.88;4981790;28;20022;-76
2021/08/02 10:40:00;;;;;;;5.32;3.20;;;;;;;-140.79;100.00;63287.88;4968174;28;20029;-74
2021/08/02 10:42:25;;;;;;;8.15;3.30;;;;;;;-140.79;100.00;63287.88;4978936;28;20023;-72
2021/08/02 10:44:55;;;;;;;7.00;3.50;;;;;;;-140.79;100.00;63287.88;4985862;28;20505;-73
2021/08/02 10:47:20;;;;;;;6.72;3.03;;;;;;;-140.79;100.00;63287.88;4984135;28;20049;-73
2021/08/02 10:49:49;;;;;;;6.40;3.33;;;;;;;-140.79;100.00;63287.88;4988882;28;20490;-72
2021/08/02 10:52:27;;;;;;;5.93;3.08;;;;;;;-140.79;100.00;63287.88;4988168;28;20124;-72
2021/08/02 10:54:53;;;;;;;5.50;3.35;;;;;;;-140.79;100.00;63287.88;4980315;28;21774;-72
2021/08/02 10:57:18;;;;;;;5.72;3.00;;;;;;;-140.79;100.00;63287.88;4967653;28;20038;-72
2021/08/02 10:59:44;;;;;;;6.05;3.30;;;;;;;-140.79;100.00;63287.88;4969635;28;20058;-77
2021/08/02 11:02:10;;;;;;;5.28;2.95;;;;;;;-140.79;100.00;63287.88;4954598;28;20445;-74
2021/08/02 11:04:36;;;;;;;7.00;3.40;;;;;;;-140.79;100.00;63287.88;4980477;28;20046;-75
2021/08/02 11:07:01;;;;;;;5.18;2.72;;;;;;;-140.79;100.00;63287.88;4972422;28;20065;-71
2021/08/02 11:09:28;;;;;;;5.45;3.58;;;;;;;-140.79;100.00;63287.88;4977123;28;20037;-72